National Weather Service United States Department of Commerce
Click Here for Latest Airport Weather Warnings
 
Latest Huntsville TAF


000
FTUS44 KHUN 301120
TAFHSV
TAF
KHSV 301120Z 3012/3112 35010KT P6SM OVC010
FM301500 36012G17KT P6SM FEW015 SCT050
FM302000 01011KT P6SM SCT250
FM310000 03006KT P6SM SKC=

Latest Muscle Shoals TAF


215
FTUS44 KHUN 301120
TAFMSL
TAF
KMSL 301120Z 3012/3112 32009KT P6SM OVC015
FM301400 34010G15KT P6SM SCT015 BKN035
FM301900 01010KT P6SM SCT250
FM310000 03005KT P6SM SKC=


Back to Main Huntsville Weather Forecast Office Page